Observation data for Northfield on 08/14/2020      Previous  Date  Next       Current Mesonet Observations  Soil Data  Daily Summary Page  Observations in Plain Language
KNOR 140500Z 23002KT 29/14 A2988 RMK A01 T02920137  RH  040%=      5-min Rain = 0
KNOR 140505Z 23002KT 29/14 A2988 RMK A01 T02860137  RH  042%=      5-min Rain = 0
KNOR 140510Z 25003KT 29/13 A2988 RMK A01 T02880134  RH  040%=      5-min Rain = 0
KNOR 140515Z 25003KT 29/13 A2988 RMK A01 T02860134  RH  041%=      5-min Rain = 0
KNOR 140520Z 24004KT 29/13 A2989 RMK A01 T02850134  RH  041%=      5-min Rain = 0
KNOR 140525Z 25003KT 29/13 A2989 RMK A01 T02860133  RH  041%=      5-min Rain = 0
KNOR 140530Z 26003KT 28/13 A2989 RMK A01 T02840133  RH  041%=      5-min Rain = 0
KNOR 140535Z 27003KT 29/13 A2989 RMK A01 T02880133  RH  040%=      5-min Rain = 0
KNOR 140540Z 27004KT 29/13 A2989 RMK A01 T02890134  RH  040%=      5-min Rain = 0
KNOR 140545Z 29004KT 28/14 A2989 RMK A01 T02840137  RH  042%=      5-min Rain = 0
KNOR 140550Z 32004KT 28/14 A2989 RMK A01 T02840136  RH  042%=      5-min Rain = 0
KNOR 140555Z 32005KT 28/14 A2989 RMK A01 T02820139  RH  043%=      5-min Rain = 0
KNOR 140600Z 32004KT 28/14 A2989 RMK A01 T02780140  RH  044%=      5-min Rain = 0
KNOR 140605Z 34004KT 28/14 A299 RMK A01 T02830141  RH  044%=      5-min Rain = 0
KNOR 140610Z 34005KT 28/15 A299 RMK A01 T02790145  RH  046%=      5-min Rain = 0
KNOR 140615Z 33006KT 28/14 A2989 RMK A01 T02800143  RH  045%=      5-min Rain = 0
KNOR 140620Z 32005KT 28/14 A2989 RMK A01 T02840141  RH  043%=      5-min Rain = 0
KNOR 140625Z 32005KT 29/14 A2989 RMK A01 T02850140  RH  043%=      5-min Rain = 0
KNOR 140630Z 30005KT 28/14 A2989 RMK A01 T02840143  RH  044%=      5-min Rain = 0
KNOR 140635Z 28004KT 28/14 A2989 RMK A01 T02780144  RH  046%=      5-min Rain = 0
KNOR 140640Z 27003KT 26/15 A2989 RMK A01 T02640145  RH  050%=      5-min Rain = 0
KNOR 140645Z 29004KT 26/14 A2989 RMK A01 T02620144  RH  050%=      5-min Rain = 0
KNOR 140650Z 25004KT 26/15 A2989 RMK A01 T02610145  RH  051%=      5-min Rain = 0
KNOR 140655Z 28004KT 26/15 A2989 RMK A01 T02560148  RH  053%=      5-min Rain = 0
KNOR 140700Z 31003KT 26/15 A2989 RMK A01 T02630151  RH  052%=      5-min Rain = 0
KNOR 140705Z 31004KT 27/15 A2988 RMK A01 T02670153  RH  052%=      5-min Rain = 0
KNOR 140710Z 33005KT 28/16 A2988 RMK A01 T02750160  RH  052%=      5-min Rain = 0
KNOR 140715Z 31005KT 27/16 A2988 RMK A01 T02740163  RH  053%=      5-min Rain = 0
KNOR 140720Z 28004KT 27/16 A2988 RMK A01 T02670160  RH  054%=      5-min Rain = 0
KNOR 140725Z 27005KT 26/16 A2989 RMK A01 T02610159  RH  056%=      5-min Rain = 0
KNOR 140730Z 24006KT 25/16 A2989 RMK A01 T02510157  RH  059%=      5-min Rain = 0
KNOR 140735Z 23007KT 25/16 A2989 RMK A01 T02480158  RH  060%=      5-min Rain = 0
KNOR 140740Z 23006KT 25/16 A2988 RMK A01 T02450158  RH  061%=      5-min Rain = 0
KNOR 140745Z 24006KT 24/16 A2989 RMK A01 T02440159  RH  062%=      5-min Rain = 0
KNOR 140750Z 24005KT 24/16 A2989 RMK A01 T02440160  RH  062%=      5-min Rain = 0
KNOR 140755Z 26005KT 25/16 A2989 RMK A01 T02450160  RH  062%=      5-min Rain = 0
KNOR 140800Z 26005KT 25/16 A299 RMK A01 T02480159  RH  061%=      5-min Rain = 0
KNOR 140805Z 25005KT 25/16 A299 RMK A01 T02500159  RH  060%=      5-min Rain = 0
KNOR 140810Z 25005KT 25/16 A2989 RMK A01 T02460159  RH  061%=      5-min Rain = 0
KNOR 140815Z 25006KT 24/16 A2989 RMK A01 T02440159  RH  062%=      5-min Rain = 0
KNOR 140820Z 23006KT 24/16 A2989 RMK A01 T02440159  RH  062%=      5-min Rain = 0
KNOR 140825Z 24006KT 24/16 A2989 RMK A01 T02400159  RH  063%=      5-min Rain = 0
KNOR 140830Z 25006KT 24/16 A2989 RMK A01 T02410159  RH  063%=      5-min Rain = 0
KNOR 140835Z 26005KT 24/16 A2989 RMK A01 T02440159  RH  062%=      5-min Rain = 0
KNOR 140840Z 26004KT 25/16 A2989 RMK A01 T02470160  RH  061%=      5-min Rain = 0
KNOR 140845Z 25005KT 24/16 A2989 RMK A01 T02440160  RH  062%=      5-min Rain = 0
KNOR 140850Z 25005KT 24/16 A2989 RMK A01 T02440160  RH  062%=      5-min Rain = 0
KNOR 140855Z 24005KT 24/16 A2989 RMK A01 T02420159  RH  063%=      5-min Rain = 0
KNOR 140900Z 23006KT 24/16 A2989 RMK A01 T02410158  RH  063%=      5-min Rain = 0
KNOR 140905Z 24005KT 24/16 A2989 RMK A01 T02390158  RH  063%=      5-min Rain = 0
KNOR 140910Z 25006KT 24/16 A2989 RMK A01 T02370157  RH  064%=      5-min Rain = 0
KNOR 140915Z 25006KT 24/16 A2989 RMK A01 T02350158  RH  065%=      5-min Rain = 0
KNOR 140920Z 26005KT 24/16 A2989 RMK A01 T02350157  RH  065%=      5-min Rain = 0
KNOR 140925Z 26005KT 23/16 A2989 RMK A01 T02340157  RH  065%=      5-min Rain = 0
KNOR 140930Z 26005KT 23/16 A2989 RMK A01 T02320157  RH  066%=      5-min Rain = 0
KNOR 140935Z 26005KT 23/16 A2989 RMK A01 T02320156  RH  065%=      5-min Rain = 0
KNOR 140940Z 26005KT 23/16 A2988 RMK A01 T02320156  RH  066%=      5-min Rain = 0
KNOR 140945Z 26004KT 23/16 A2988 RMK A01 T02310156  RH  066%=      5-min Rain = 0
KNOR 140950Z 25004KT 23/16 A2989 RMK A01 T02290156  RH  066%=      5-min Rain = 0
KNOR 140955Z 24004KT 23/16 A2989 RMK A01 T02270155  RH  067%=      5-min Rain = 0
KNOR 141000Z 25005KT 23/15 A2989 RMK A01 T02270154  RH  066%=      5-min Rain = 0
KNOR 141005Z 24004KT 23/16 A2988 RMK A01 T02290157  RH  067%=      5-min Rain = 0
KNOR 141010Z 23004KT 23/16 A2988 RMK A01 T02300156  RH  066%=      5-min Rain = 0
KNOR 141015Z 24003KT 23/16 A2989 RMK A01 T02320158  RH  066%=      5-min Rain = 0
KNOR 141020Z 23003KT 23/16 A2989 RMK A01 T02340159  RH  066%=      5-min Rain = 0
KNOR 141025Z 23003KT 24/16 A2989 RMK A01 T02370161  RH  065%=      5-min Rain = 0
KNOR 141030Z 24003KT 24/16 A2989 RMK A01 T02370161  RH  066%=      5-min Rain = 0
KNOR 141035Z 27002KT 24/16 A2989 RMK A01 T02380163  RH  066%=      5-min Rain = 0
KNOR 141040Z 24003KT 24/16 A2989 RMK A01 T02370162  RH  066%=      5-min Rain = 0
KNOR 141045Z 26003KT 23/16 A2989 RMK A01 T02340162  RH  067%=      5-min Rain = 0
KNOR 141050Z 26003KT 23/16 A2989 RMK A01 T02320163  RH  068%=      5-min Rain = 0
KNOR 141055Z 25003KT 23/16 A299 RMK A01 T02300163  RH  069%=      5-min Rain = 0
KNOR 141100Z 24001KT 23/16 A299 RMK A01 T02310163  RH  069%=      5-min Rain = 0
KNOR 141105Z 25001KT 23/16 A299 RMK A01 T02320164  RH  069%=      5-min Rain = 0
KNOR 141110Z 25001KT 23/16 A299 RMK A01 T02330164  RH  069%=      5-min Rain = 0
KNOR 141115Z 24001KT 23/16 A299 RMK A01 T02300164  RH  070%=      5-min Rain = 0
KNOR 141120Z 24000KT 23/17 A299 RMK A01 T02320165  RH  070%=      5-min Rain = 0
KNOR 141125Z 00001KT 23/17 A299 RMK A01 T02310167  RH  070%=      5-min Rain = 0
KNOR 141130Z 03002KT 24/17 A299 RMK A01 T02360171  RH  070%=      5-min Rain = 0
KNOR 141135Z 06002KT 24/17 A299 RMK A01 T02380172  RH  070%=      5-min Rain = 0
KNOR 141140Z 06002KT 24/17 A299 RMK A01 T02350172  RH  071%=      5-min Rain = 0
KNOR 141145Z 02001KT 23/17 A299 RMK A01 T02340173  RH  072%=      5-min Rain = 0
KNOR 141150Z 00000KT 23/17 A299 RMK A01 T02330171  RH  071%=      5-min Rain = 0
KNOR 141155Z 00001KT 23/17 A299 RMK A01 T02310170  RH  072%=      5-min Rain = 0
KNOR 141200Z 00000KT 23/17 A2991 RMK A01 T02320172  RH  073%=      5-min Rain = 0
KNOR 141205Z 00001KT 24/18 A2991 RMK A01 T02390177  RH  072%=      5-min Rain = 0
KNOR 141210Z 33000KT 24/18 A2991 RMK A01 T02390175  RH  071%=      5-min Rain = 0
KNOR 141215Z 24000KT 23/17 A2991 RMK A01 T02320174  RH  074%=      5-min Rain = 0
KNOR 141220Z 24000KT 23/18 A2991 RMK A01 T02330176  RH  074%=      5-min Rain = 0
KNOR 141225Z 25000KT 24/18 A2991 RMK A01 T02370177  RH  073%=      5-min Rain = 0
KNOR 141230Z 31001KT 24/18 A2992 RMK A01 T02420179  RH  071%=      5-min Rain = 0
KNOR 141235Z 30000KT 24/18 A2992 RMK A01 T02410178  RH  072%=      5-min Rain = 0
KNOR 141240Z 27000KT 24/18 A2992 RMK A01 T02410179  RH  072%=      5-min Rain = 0
KNOR 141245Z 27000KT 24/18 A2992 RMK A01 T02430181  RH  072%=      5-min Rain = 0
KNOR 141250Z 27001KT 24/18 A2992 RMK A01 T02440183  RH  073%=      5-min Rain = 0
KNOR 141255Z 27001KT 25/19 A2992 RMK A01 T02480185  RH  072%=      5-min Rain = 0
KNOR 141300Z 27001KT 25/19 A2992 RMK A01 T02520187  RH  071%=      5-min Rain = 0
KNOR 141305Z 25000KT 26/19 A2992 RMK A01 T02570189  RH  070%=      5-min Rain = 0
KNOR 141310Z 21001KT 26/19 A2992 RMK A01 T02580190  RH  070%=      5-min Rain = 0
KNOR 141315Z 19002KT 26/19 A2992 RMK A01 T02610192  RH  069%=      5-min Rain = 0
KNOR 141320Z 19002KT 26/19 A2993 RMK A01 T02620193  RH  069%=      5-min Rain = 0
KNOR 141325Z 20001KT 27/20 A2993 RMK A01 T02670195  RH  068%=      5-min Rain = 0
KNOR 141330Z 21001KT 27/20 A2993 RMK A01 T02700196  RH  068%=      5-min Rain = 0
KNOR 141335Z 21001KT 28/20 A2993 RMK A01 T02750198  RH  066%=      5-min Rain = 0
KNOR 141340Z 22002KT 28/20 A2993 RMK A01 T02770197  RH  066%=      5-min Rain = 0
KNOR 141345Z 23001KT 28/20 A2993 RMK A01 T02810196  RH  063%=      5-min Rain = 0
KNOR 141350Z 22002KT 28/20 A2993 RMK A01 T02830196  RH  063%=      5-min Rain = 0
KNOR 141355Z 23002KT 29/19 A2993 RMK A01 T02860194  RH  061%=      5-min Rain = 0
KNOR 141400Z 25001KT 29/19 A2993 RMK A01 T02900193  RH  059%=      5-min Rain = 0
KNOR 141405Z 26002KT 29/19 A2993 RMK A01 T02920190  RH  057%=      5-min Rain = 0
KNOR 141410Z 26003KT 30/18 A2993 RMK A01 T02960182  RH  053%=      5-min Rain = 0
KNOR 141415Z 25004KT 30/18 A2992 RMK A01 T03030177  RH  049%=      5-min Rain = 0
KNOR 141420Z 25005KT 31/17 A2992 RMK A01 T03070173  RH  047%=      5-min Rain = 0
KNOR 141425Z 25005KT 31/16 A2992 RMK A01 T03120164  RH  043%=      5-min Rain = 0
KNOR 141430Z 25006KT 32/15 A2992 RMK A01 T03170152  RH  039%=      5-min Rain = 0
KNOR 141435Z 27005KT 32/16 A2993 RMK A01 T03210156  RH  039%=      5-min Rain = 0
KNOR 141440Z 28005KT 32/16 A2993 RMK A01 T03240155  RH  038%=      5-min Rain = 0
KNOR 141445Z 27006KT 32/15 A2993 RMK A01 T03230154  RH  038%=      5-min Rain = 0
KNOR 141450Z 25006KT 32/16 A2992 RMK A01 T03240158  RH  039%=      5-min Rain = 0
KNOR 141455Z 28005KT 32/16 A2992 RMK A01 T03230160  RH  039%=      5-min Rain = 0
KNOR 141500Z 27006KT 33/16 A2992 RMK A01 T03250155  RH  038%=      5-min Rain = 0
KNOR 141505Z 26005KT 33/16 A2992 RMK A01 T03320155  RH  036%=      5-min Rain = 0
KNOR 141510Z 26004KT 33/16 A2992 RMK A01 T03340155  RH  036%=      5-min Rain = 0
KNOR 141515Z 25004KT 34/15 A2992 RMK A01 T03360154  RH  035%=      5-min Rain = 0
KNOR 141520Z 24006KT 34/15 A2992 RMK A01 T03370153  RH  035%=      5-min Rain = 0
KNOR 141525Z 28003KT 34/15 A2992 RMK A01 T03410148  RH  033%=      5-min Rain = 0
KNOR 141530Z 25005KT 34/15 A2992 RMK A01 T03440147  RH  032%=      5-min Rain = 0
KNOR 141535Z 24005KT 35/15 A2992 RMK A01 T03480147  RH  031%=      5-min Rain = 0
KNOR 141540Z 27005KT 36/14 A2992 RMK A01 T03570139  RH  028%=      5-min Rain = 0
KNOR 141545Z 30010G15KT 36/12 A2992 RMK A01 T03640116  RH  023%=      5-min Rain = 0
KNOR 141550Z 29010G15KT 37/11 A2992 RMK A01 T03680113  RH  022%=      5-min Rain = 0
KNOR 141555Z 29010KT 37/11 A2992 RMK A01 T03680110  RH  022%=      5-min Rain = 0
KNOR 141600Z 28010KT 37/11 A2992 RMK A01 T03680110  RH  022%=      5-min Rain = 0
KNOR 141605Z 29009G14KT 37/11 A2992 RMK A01 T03710109  RH  021%=      5-min Rain = 0
KNOR 141610Z 28007G13KT 37/11 A2992 RMK A01 T03720110  RH  021%=      5-min Rain = 0
KNOR 141615Z 28009G14KT 37/11 A2992 RMK A01 T03740109  RH  021%=      5-min Rain = 0
KNOR 141620Z 29008KT 38/11 A2992 RMK A01 T03760108  RH  021%=      5-min Rain = 0
KNOR 141625Z 29007G12KT 38/11 A2992 RMK A01 T03770108  RH  021%=      5-min Rain = 0
KNOR 141630Z 29006G11KT 38/11 A2992 RMK A01 T03770108  RH  021%=      5-min Rain = 0
KNOR 141635Z 28004G10KT 38/11 A2992 RMK A01 T03780107  RH  020%=      5-min Rain = 0
KNOR 141640Z 28008KT 38/11 A2992 RMK A01 T03790111  RH  021%=      5-min Rain = 0
KNOR 141645Z 26005KT 38/11 A2992 RMK A01 T03780108  RH  020%=      5-min Rain = 0
KNOR 141650Z 25006KT 38/11 A2992 RMK A01 T03790110  RH  021%=      5-min Rain = 0
KNOR 141655Z 30004KT 38/11 A2992 RMK A01 T03780109  RH  021%=      5-min Rain = 0
KNOR 141700Z 27005KT 38/11 A2992 RMK A01 T03810110  RH  020%=      5-min Rain = 0
KNOR 141705Z 31006KT 38/11 A2992 RMK A01 T03830110  RH  020%=      5-min Rain = 0
KNOR 141710Z 29006KT 39/11 A2992 RMK A01 T03860111  RH  020%=      5-min Rain = 0
KNOR 141715Z 24005KT 39/11 A2992 RMK A01 T03860111  RH  020%=      5-min Rain = 0
KNOR 141720Z 28002KT 39/11 A2992 RMK A01 T03860108  RH  020%=      5-min Rain = 0
KNOR 141725Z 26004G9KT 39/11 A2992 RMK A01 T03880110  RH  020%=      5-min Rain = 0
KNOR 141730Z 29006KT 39/11 A2992 RMK A01 T03930113  RH  020%=      5-min Rain = 0
KNOR 141735Z 35002G8KT 39/11 A2992 RMK A01 T03910111  RH  019%=      5-min Rain = 0
KNOR 141740Z 09003KT 39/11 A2992 RMK A01 T03890112  RH  020%=      5-min Rain = 0
KNOR 141745Z 06002KT 40/12 A2991 RMK A01 T04010116  RH  019%=      5-min Rain = 0
KNOR 141750Z 11003KT 39/11 A2991 RMK A01 T03930111  RH  019%=      5-min Rain = 0
KNOR 141755Z 06004KT 40/11 A2991 RMK A01 T03950113  RH  019%=      5-min Rain = 0
KNOR 141800Z 34003KT 40/11 A2991 RMK A01 T04010113  RH  019%=      5-min Rain = 0
KNOR 141805Z 30004KT 40/11 A2991 RMK A01 T04030113  RH  019%=      5-min Rain = 0
KNOR 141810Z 01006KT 40/11 A2991 RMK A01 T04030112  RH  018%=      5-min Rain = 0
KNOR 141815Z 07004KT 40/11 A2991 RMK A01 T03990111  RH  019%=      5-min Rain = 0
KNOR 141820Z 07003KT 40/11 A2991 RMK A01 T04000111  RH  019%=      5-min Rain = 0
KNOR 141825Z 07003KT 40/11 A299 RMK A01 T03990111  RH  019%=      5-min Rain = 0
KNOR 141830Z 28002KT 40/11 A299 RMK A01 T04030112  RH  018%=      5-min Rain = 0
KNOR 141835Z 33003KT 40/11 A299 RMK A01 T04020111  RH  018%=      5-min Rain = 0
KNOR 141840Z 12004G9KT 41/11 A299 RMK A01 T04070113  RH  018%=      5-min Rain = 0
KNOR 141845Z 02005G12KT 41/12 A299 RMK A01 T04080115  RH  018%=      5-min Rain = 0
KNOR 141850Z 07006G11KT 41/12 A299 RMK A01 T04100119  RH  019%=      5-min Rain = 0
KNOR 141855Z 08005KT 40/12 A299 RMK A01 T04040118  RH  019%=      5-min Rain = 0
KNOR 141900Z 08003KT 42/12 A299 RMK A01 T04150122  RH  019%=      5-min Rain = 0
KNOR 141905Z 11005KT 41/12 A2989 RMK A01 T04140122  RH  019%=      5-min Rain = 0
KNOR 141910Z 00004KT 41/12 A2989 RMK A01 T04050119  RH  019%=      5-min Rain = 0
KNOR 141915Z 01004G9KT 41/12 A2989 RMK A01 T04120120  RH  018%=      5-min Rain = 0
KNOR 141920Z 09005G10KT 41/12 A2989 RMK A01 T04110117  RH  018%=      5-min Rain = 0
KNOR 141925Z 07002G7KT 41/11 A2989 RMK A01 T04100114  RH  018%=      5-min Rain = 0
KNOR 141930Z 11004KT 41/11 A2988 RMK A01 T04110114  RH  018%=      5-min Rain = 0
KNOR 141935Z 13005G10KT 41/12 A2988 RMK A01 T04140115  RH  018%=      5-min Rain = 0
KNOR 141940Z 09005G10KT 41/11 A2988 RMK A01 T04120114  RH  018%=      5-min Rain = 0
KNOR 141945Z 05009KT 42/11 A2987 RMK A01 T04160114  RH  017%=      5-min Rain = 0
KNOR 141950Z 06008KT 42/11 A2987 RMK A01 T04180113  RH  017%=      5-min Rain = 0
KNOR 141955Z 06006G11KT 41/11 A2987 RMK A01 T04130112  RH  017%=      5-min Rain = 0
KNOR 142000Z 07005G10KT 41/11 A2986 RMK A01 T04070112  RH  018%=      5-min Rain = 0
KNOR 142005Z 06005KT 41/11 A2986 RMK A01 T04060111  RH  018%=      5-min Rain = 0
KNOR 142010Z 06006KT 41/11 A2986 RMK A01 T04080112  RH  018%=      5-min Rain = 0
KNOR 142015Z 07005KT 41/11 A2986 RMK A01 T04070112  RH  018%=      5-min Rain = 0
KNOR 142020Z 06007KT 40/11 A2986 RMK A01 T04040112  RH  018%=      5-min Rain = 0
KNOR 142025Z 08007G12KT 40/11 A2986 RMK A01 T04040113  RH  018%=      5-min Rain = 0
KNOR 142030Z 08006KT 40/11 A2986 RMK A01 T04040112  RH  018%=      5-min Rain = 0
KNOR 142035Z 06006KT 40/11 A2985 RMK A01 T04020114  RH  019%=      5-min Rain = 0
KNOR 142040Z 06008KT 40/11 A2985 RMK A01 T04000114  RH  019%=      5-min Rain = 0
KNOR 142045Z 05007KT 40/12 A2984 RMK A01 T04010116  RH  019%=      5-min Rain = 0
KNOR 142050Z 07009KT 40/11 A2985 RMK A01 T03990111  RH  019%=      5-min Rain = 0
KNOR 142055Z 05007G12KT 40/11 A2985 RMK A01 T03970114  RH  019%=      5-min Rain = 0
KNOR 142100Z 06009KT 40/11 A2985 RMK A01 T03960110  RH  019%=      5-min Rain = 0
KNOR 142105Z 06008G14KT 39/11 A2985 RMK A01 T03940110  RH  019%=      5-min Rain = 0
KNOR 142110Z 06007KT 40/11 A2985 RMK A01 T03950111  RH  019%=      5-min Rain = 0
KNOR 142115Z 06008KT 39/11 A2984 RMK A01 T03930112  RH  019%=      5-min Rain = 0
KNOR 142120Z 06007G13KT 39/12 A2984 RMK A01 T03910118  RH  020%=      5-min Rain = 0
KNOR 142125Z 05008KT 39/12 A2983 RMK A01 T03880121  RH  021%=      5-min Rain = 0
KNOR 142130Z 04010KT 39/12 A2983 RMK A01 T03860119  RH  021%=      5-min Rain = 0
KNOR 142135Z 04009G14KT 39/12 A2983 RMK A01 T03850119  RH  021%=      5-min Rain = 0
KNOR 142140Z 05008KT 39/12 A2983 RMK A01 T03850117  RH  021%=      5-min Rain = 0
KNOR 142145Z 05008KT 38/12 A2984 RMK A01 T03840118  RH  021%=      5-min Rain = 0
KNOR 142150Z 05007KT 38/12 A2984 RMK A01 T03830118  RH  021%=      5-min Rain = 0
KNOR 142155Z 05006KT 38/12 A2984 RMK A01 T03820120  RH  022%=      5-min Rain = 0
KNOR 142200Z 03006KT 38/13 A2984 RMK A01 T03810125  RH  023%=      5-min Rain = 0
KNOR 142205Z 03007KT 38/13 A2985 RMK A01 T03800129  RH  023%=      5-min Rain = 0
KNOR 142210Z 04006KT 38/13 A2985 RMK A01 T03780128  RH  023%=      5-min Rain = 0
KNOR 142215Z 02007KT 38/13 A2986 RMK A01 T03760128  RH  024%=      5-min Rain = 0
KNOR 142220Z 35006KT 37/13 A2986 RMK A01 T03740129  RH  024%=      5-min Rain = 0
KNOR 142225Z 33006KT 37/13 A2987 RMK A01 T03710132  RH  025%=      5-min Rain = 0
KNOR 142230Z 32006KT 37/13 A2988 RMK A01 T03680133  RH  026%=      5-min Rain = 0
KNOR 142235Z 36005KT 37/13 A2988 RMK A01 T03680133  RH  026%=      5-min Rain = 0
KNOR 142240Z 01004KT 37/13 A2988 RMK A01 T03670132  RH  026%=      5-min Rain = 0
KNOR 142245Z 29006KT 36/13 A2989 RMK A01 T03640134  RH  026%=      5-min Rain = 0
KNOR 142250Z 24010KT 35/11 A2989 RMK A01 T03530113  RH  024%=      5-min Rain = 0
KNOR 142255Z 23014G20KT 35/10 A2989 RMK A01 T03480103  RH  023%=      5-min Rain = 0
KNOR 142300Z 24008KT 35/10 A299 RMK A01 T03480100  RH  023%=      5-min Rain = 0
KNOR 142305Z 25004KT 35/10 A299 RMK A01 T03500101  RH  023%=      5-min Rain = 0
KNOR 142310Z 31004KT 35/12 A299 RMK A01 T03510119  RH  026%=      5-min Rain = 0
KNOR 142315Z 36003G8KT 35/13 A299 RMK A01 T03510127  RH  027%=      5-min Rain = 0
KNOR 142320Z 00003KT 35/13 A2989 RMK A01 T03530126  RH  027%=      5-min Rain = 0
KNOR 142325Z 30003KT 35/13 A2988 RMK A01 T03490132  RH  028%=      5-min Rain = 0
KNOR 142330Z 28004KT 35/13 A2988 RMK A01 T03460126  RH  027%=      5-min Rain = 0
KNOR 142335Z 26009KT 34/11 A2988 RMK A01 T03390108  RH  025%=      5-min Rain = 0
KNOR 142340Z 24009KT 34/09 A2987 RMK A01 T03400092  RH  022%=      5-min Rain = 0
KNOR 142345Z 24007KT 34/09 A2988 RMK A01 T03410085  RH  021%=      5-min Rain = 0
KNOR 142350Z 21009KT 34/08 A2987 RMK A01 T03410081  RH  021%=      5-min Rain = 0
KNOR 142355Z 21010KT 34/08 A2987 RMK A01 T03440076  RH  020%=      5-min Rain = 0
KNOR 150000Z 19013G21KT 34/08 A2988 RMK A01 T03440079  RH  020%=      5-min Rain = 0
KNOR 150005Z 19014G19KT 33/10 A2989 RMK A01 T03290101  RH  026%=      5-min Rain = 0
KNOR 150010Z 18014G19KT 33/10 A2989 RMK A01 T03270103  RH  026%=      5-min Rain = 0
KNOR 150015Z 17012KT 33/11 A299 RMK A01 T03260105  RH  027%=      5-min Rain = 0
KNOR 150020Z 18010KT 32/11 A299 RMK A01 T03220107  RH  028%=      5-min Rain = 0
KNOR 150025Z 18007G12KT 32/11 A2991 RMK A01 T03220106  RH  027%=      5-min Rain = 0
KNOR 150030Z 20006KT 32/11 A2991 RMK A01 T03230105  RH  027%=      5-min Rain = 0
KNOR 150035Z 22007KT 33/10 A2992 RMK A01 T03250103  RH  026%=      5-min Rain = 0
KNOR 150040Z 23008KT 33/10 A2992 RMK A01 T03280099  RH  025%=      5-min Rain = 0
KNOR 150045Z 23004G9KT 33/10 A2993 RMK A01 T03280099  RH  025%=      5-min Rain = 0
KNOR 150050Z 27007KT 33/10 A2994 RMK A01 T03260102  RH  026%=      5-min Rain = 0
KNOR 150055Z 24010G16KT 32/11 A2994 RMK A01 T03240105  RH  027%=      5-min Rain = 0
KNOR 150100Z 24013G19KT 33/10 A2994 RMK A01 T03260104  RH  026%=      5-min Rain = 0
KNOR 150105Z 21014KT 33/10 A2992 RMK A01 T03280101  RH  026%=      5-min Rain = 0
KNOR 150110Z 20014G19KT 33/10 A2991 RMK A01 T03310096  RH  024%=      5-min Rain = 0
KNOR 150115Z 20013KT 33/10 A2991 RMK A01 T03300097  RH  025%=      5-min Rain = 0
KNOR 150120Z 19014G21KT 33/10 A299 RMK A01 T03270099  RH  026%=      5-min Rain = 0
KNOR 150125Z 19012KT 33/10 A299 RMK A01 T03260098  RH  025%=      5-min Rain = 0
KNOR 150130Z 20012KT 32/10 A299 RMK A01 T03230099  RH  026%=      5-min Rain = 0
KNOR 150135Z 18011G16KT 32/10 A299 RMK A01 T03220100  RH  026%=      5-min Rain = 0
KNOR 150140Z 17011KT 32/10 A2989 RMK A01 T03190101  RH  027%=      5-min Rain = 0
KNOR 150145Z 16011KT 32/10 A2989 RMK A01 T03160103  RH  028%=      5-min Rain = 0
KNOR 150150Z 17008KT 31/11 A2989 RMK A01 T03120105  RH  029%=      5-min Rain = 0
KNOR 150155Z 22007KT 31/11 A299 RMK A01 T03070105  RH  030%=      5-min Rain = 0
KNOR 150200Z 22007KT 30/11 A299 RMK A01 T03030105  RH  030%=      5-min Rain = 0
KNOR 150205Z 21006KT 30/11 A299 RMK A01 T02980105  RH  031%=      5-min Rain = 0
KNOR 150210Z 19009G15KT 30/10 A2989 RMK A01 T03010103  RH  030%=      5-min Rain = 0
KNOR 150215Z 21010KT 31/10 A2989 RMK A01 T03070097  RH  028%=      5-min Rain = 0
KNOR 150220Z 22012KT 32/09 A2989 RMK A01 T03170091  RH  025%=      5-min Rain = 0
KNOR 150225Z 21010KT 32/09 A2989 RMK A01 T03180090  RH  025%=      5-min Rain = 0
KNOR 150230Z 22010KT 32/09 A2989 RMK A01 T03170088  RH  025%=      5-min Rain = 0
KNOR 150235Z 21013KT 32/08 A2988 RMK A01 T03220084  RH  023%=      5-min Rain = 0
KNOR 150240Z 20011KT 33/08 A2988 RMK A01 T03260080  RH  022%=      5-min Rain = 0
KNOR 150245Z 21012KT 33/08 A2989 RMK A01 T03260078  RH  022%=      5-min Rain = 0
KNOR 150250Z 21010KT 32/08 A299 RMK A01 T03240078  RH  022%=      5-min Rain = 0
KNOR 150255Z 20009KT 32/08 A299 RMK A01 T03210078  RH  023%=      5-min Rain = 0
KNOR 150300Z 19010G15KT 32/08 A2991 RMK A01 T03220077  RH  022%=      5-min Rain = 0
KNOR 150305Z 20009G14KT 32/08 A2991 RMK A01 T03220078  RH  023%=      5-min Rain = 0
KNOR 150310Z 20009KT 32/08 A2991 RMK A01 T03190080  RH  023%=      5-min Rain = 0
KNOR 150315Z 20008KT 32/08 A2992 RMK A01 T03150082  RH  024%=      5-min Rain = 0
KNOR 150320Z 19007KT 31/09 A2992 RMK A01 T03110085  RH  025%=      5-min Rain = 0
KNOR 150325Z 19007KT 31/09 A2992 RMK A01 T03050088  RH  027%=      5-min Rain = 0
KNOR 150330Z 21007KT 30/09 A2992 RMK A01 T03040089  RH  027%=      5-min Rain = 0
KNOR 150335Z 23006KT 30/09 A2992 RMK A01 T03010089  RH  028%=      5-min Rain = 0
KNOR 150340Z 26006KT 29/09 A2992 RMK A01 T02920091  RH  029%=      5-min Rain = 0
KNOR 150345Z 25006KT 29/09 A2993 RMK A01 T02930089  RH  029%=      5-min Rain = 0
KNOR 150350Z 24007KT 30/09 A2993 RMK A01 T02950091  RH  029%=      5-min Rain = 0
KNOR 150355Z 23005KT 30/09 A2993 RMK A01 T02950091  RH  029%=      5-min Rain = 0
KNOR 150400Z 27006KT 29/09 A2994 RMK A01 T02890093  RH  030%=      5-min Rain = 0
KNOR 150405Z 28007KT 29/10 A2994 RMK A01 T02850095  RH  031%=      5-min Rain = 0
KNOR 150410Z 28006KT 29/10 A2994 RMK A01 T02900095  RH  030%=      5-min Rain = 0
KNOR 150415Z 30006KT 29/09 A2994 RMK A01 T02880094  RH  031%=      5-min Rain = 0
KNOR 150420Z 30004KT 29/09 A2994 RMK A01 T02890093  RH  030%=      5-min Rain = 0
KNOR 150425Z 28004KT 29/09 A2994 RMK A01 T02940091  RH  029%=      5-min Rain = 0
KNOR 150430Z 29005KT 30/09 A2994 RMK A01 T02960091  RH  029%=      5-min Rain = 0
KNOR 150435Z 31006KT 29/09 A2994 RMK A01 T02920092  RH  030%=      5-min Rain = 0
KNOR 150440Z 31007KT 29/10 A2994 RMK A01 T02850095  RH  031%=      5-min Rain = 0
KNOR 150445Z 31006KT 28/10 A2994 RMK A01 T02820098  RH  033%=      5-min Rain = 0
KNOR 150450Z 32005KT 28/10 A2994 RMK A01 T02810098  RH  033%=      5-min Rain = 0
KNOR 150455Z 32007KT 28/10 A2994 RMK A01 T02820100  RH  033%=      5-min Rain = 0

Page generated in 0.0093 seconds.